sensor_id;sensor_type;location;lat;lon;timestamp;temperature;humidity
5041;DHT22;2539;52.568;13.364;2023-07-13T00:02:25;19.30;99.90
5041;DHT22;2539;52.568;13.364;2023-07-13T00:04:52;19.30;99.90
5041;DHT22;2539;52.568;13.364;2023-07-13T00:07:19;19.20;99.90
5041;DHT22;2539;52.568;13.364;2023-07-13T00:09:48;19.20;99.90
5041;DHT22;2539;52.568;13.364;2023-07-13T00:12:27;19.20;99.90
5041;DHT22;2539;52.568;13.364;2023-07-13T00:14:53;19.20;99.90
5041;DHT22;2539;52.568;13.364;2023-07-13T00:17:20;19.20;99.90
5041;DHT22;2539;52.568;13.364;2023-07-13T00:19:46;19.10;99.90
5041;DHT22;2539;52.568;13.364;2023-07-13T00:22:12;19.20;99.90
5041;DHT22;2539;52.568;13.364;2023-07-13T00:24:38;19.20;99.90
5041;DHT22;2539;52.568;13.364;2023-07-13T00:27:11;19.20;99.90
5041;DHT22;2539;52.568;13.364;2023-07-13T00:29:38;19.20;99.90
5041;DHT22;2539;52.568;13.364;2023-07-13T00:32:05;19.20;99.90
5041;DHT22;2539;52.568;13.364;2023-07-13T00:34:32;19.10;99.90
5041;DHT22;2539;52.568;13.364;2023-07-13T00:36:58;19.10;99.90
5041;DHT22;2539;52.568;13.364;2023-07-13T00:39:25;19.00;99.90
5041;DHT22;2539;52.568;13.364;2023-07-13T00:41:52;19.00;99.90
5041;DHT22;2539;52.568;13.364;2023-07-13T00:44:20;19.00;99.90
5041;DHT22;2539;52.568;13.364;2023-07-13T00:46:46;18.90;99.90
5041;DHT22;2539;52.568;13.364;2023-07-13T00:49:19;18.90;99.90
5041;DHT22;2539;52.568;13.364;2023-07-13T00:51:49;18.90;99.90
5041;DHT22;2539;52.568;13.364;2023-07-13T00:54:24;18.90;99.90
5041;DHT22;2539;52.568;13.364;2023-07-13T00:56:54;18.90;99.90
5041;DHT22;2539;52.568;13.364;2023-07-13T00:59:22;18.90;99.90
5041;DHT22;2539;52.568;13.364;2023-07-13T01:01:48;18.80;99.90
5041;DHT22;2539;52.568;13.364;2023-07-13T01:04:17;18.70;99.90
5041;DHT22;2539;52.568;13.364;2023-07-13T01:06:44;18.70;99.90
5041;DHT22;2539;52.568;13.364;2023-07-13T01:09:12;18.60;99.90
5041;DHT22;2539;52.568;13.364;2023-07-13T01:11:39;18.60;99.90
5041;DHT22;2539;52.568;13.364;2023-07-13T01:14:05;18.50;99.90
5041;DHT22;2539;52.568;13.364;2023-07-13T01:16:34;18.60;99.90
5041;DHT22;2539;52.568;13.364;2023-07-13T01:19:01;18.50;99.90
5041;DHT22;2539;52.568;13.364;2023-07-13T01:21:32;18.50;99.90
5041;DHT22;2539;52.568;13.364;2023-07-13T01:23:58;18.50;99.90
5041;DHT22;2539;52.568;13.364;2023-07-13T01:26:24;18.40;99.90
5041;DHT22;2539;52.568;13.364;2023-07-13T01:28:51;18.30;99.90
5041;DHT22;2539;52.568;13.364;2023-07-13T01:31:17;18.30;99.90
5041;DHT22;2539;52.568;13.364;2023-07-13T01:33:43;18.30;99.90
5041;DHT22;2539;52.568;13.364;2023-07-13T01:36:11;18.30;99.90
5041;DHT22;2539;52.568;13.364;2023-07-13T01:38:37;18.30;99.90
5041;DHT22;2539;52.568;13.364;2023-07-13T01:41:04;18.30;99.90
5041;DHT22;2539;52.568;13.364;2023-07-13T01:43:30;18.20;99.90
5041;DHT22;2539;52.568;13.364;2023-07-13T01:45:56;18.20;99.90
5041;DHT22;2539;52.568;13.364;2023-07-13T01:48:23;18.20;99.90
5041;DHT22;2539;52.568;13.364;2023-07-13T01:50:49;18.30;99.90
5041;DHT22;2539;52.568;13.364;2023-07-13T01:53:16;18.20;99.90
5041;DHT22;2539;52.568;13.364;2023-07-13T01:55:42;18.20;99.90
5041;DHT22;2539;52.568;13.364;2023-07-13T01:58:08;18.20;99.90
5041;DHT22;2539;52.568;13.364;2023-07-13T02:00:34;18.20;99.90
5041;DHT22;2539;52.568;13.364;2023-07-13T02:03:01;18.20;99.90
5041;DHT22;2539;52.568;13.364;2023-07-13T02:05:27;18.10;99.90
5041;DHT22;2539;52.568;13.364;2023-07-13T02:07:53;18.10;99.90
5041;DHT22;2539;52.568;13.364;2023-07-13T02:10:22;18.10;99.90
5041;DHT22;2539;52.568;13.364;2023-07-13T02:12:49;18.10;99.90
5041;DHT22;2539;52.568;13.364;2023-07-13T02:15:17;18.10;99.90
5041;DHT22;2539;52.568;13.364;2023-07-13T02:17:43;18.10;99.90
5041;DHT22;2539;52.568;13.364;2023-07-13T02:20:10;18.10;99.90
5041;DHT22;2539;52.568;13.364;2023-07-13T02:22:36;18.10;99.90
5041;DHT22;2539;52.568;13.364;2023-07-13T02:25:02;18.10;99.90
5041;DHT22;2539;52.568;13.364;2023-07-13T02:27:29;18.10;99.90
5041;DHT22;2539;52.568;13.364;2023-07-13T02:29:55;18.00;99.90
5041;DHT22;2539;52.568;13.364;2023-07-13T02:32:21;18.00;99.90
5041;DHT22;2539;52.568;13.364;2023-07-13T02:34:48;18.00;99.90
5041;DHT22;2539;52.568;13.364;2023-07-13T02:37:14;18.00;99.90
5041;DHT22;2539;52.568;13.364;2023-07-13T02:39:40;18.00;99.90
5041;DHT22;2539;52.568;13.364;2023-07-13T02:42:07;17.90;99.90
5041;DHT22;2539;52.568;13.364;2023-07-13T02:44:33;17.90;99.90
5041;DHT22;2539;52.568;13.364;2023-07-13T02:46:59;17.90;99.90
5041;DHT22;2539;52.568;13.364;2023-07-13T02:49:26;17.80;99.90
5041;DHT22;2539;52.568;13.364;2023-07-13T02:51:52;17.80;99.90
5041;DHT22;2539;52.568;13.364;2023-07-13T02:54:18;17.70;99.90
5041;DHT22;2539;52.568;13.364;2023-07-13T02:56:44;17.70;99.90
5041;DHT22;2539;52.568;13.364;2023-07-13T02:59:11;17.60;99.90
5041;DHT22;2539;52.568;13.364;2023-07-13T03:01:38;17.60;99.90
5041;DHT22;2539;52.568;13.364;2023-07-13T03:04:04;17.60;99.90
5041;DHT22;2539;52.568;13.364;2023-07-13T03:06:32;17.60;99.90
5041;DHT22;2539;52.568;13.364;2023-07-13T03:08:58;17.50;99.90
5041;DHT22;2539;52.568;13.364;2023-07-13T03:11:26;17.50;99.90
5041;DHT22;2539;52.568;13.364;2023-07-13T03:13:52;17.50;99.90
5041;DHT22;2539;52.568;13.364;2023-07-13T03:16:19;17.50;99.90
5041;DHT22;2539;52.568;13.364;2023-07-13T03:18:47;17.60;99.90
5041;DHT22;2539;52.568;13.364;2023-07-13T03:21:13;17.60;99.90
5041;DHT22;2539;52.568;13.364;2023-07-13T03:23:40;17.60;99.90
5041;DHT22;2539;52.568;13.364;2023-07-13T03:26:15;17.60;99.90
5041;DHT22;2539;52.568;13.364;2023-07-13T03:28:42;17.50;99.90
5041;DHT22;2539;52.568;13.364;2023-07-13T03:31:20;17.50;99.90
5041;DHT22;2539;52.568;13.364;2023-07-13T03:33:47;17.40;99.90
5041;DHT22;2539;52.568;13.364;2023-07-13T03:36:17;17.40;99.90
5041;DHT22;2539;52.568;13.364;2023-07-13T03:38:47;17.60;99.90
5041;DHT22;2539;52.568;13.364;2023-07-13T03:41:14;17.70;99.90
5041;DHT22;2539;52.568;13.364;2023-07-13T03:43:40;17.70;99.90
5041;DHT22;2539;52.568;13.364;2023-07-13T03:46:06;17.60;99.90
5041;DHT22;2539;52.568;13.364;2023-07-13T03:48:32;17.70;99.90
5041;DHT22;2539;52.568;13.364;2023-07-13T03:50:58;17.80;99.90
5041;DHT22;2539;52.568;13.364;2023-07-13T03:53:23;17.80;99.90
5041;DHT22;2539;52.568;13.364;2023-07-13T03:55:49;17.90;99.90
5041;DHT22;2539;52.568;13.364;2023-07-13T03:58:37;17.90;99.90
5041;DHT22;2539;52.568;13.364;2023-07-13T04:01:06;18.00;99.90
5041;DHT22;2539;52.568;13.364;2023-07-13T04:03:33;18.00;99.90
5041;DHT22;2539;52.568;13.364;2023-07-13T04:06:00;17.90;99.90
5041;DHT22;2539;52.568;13.364;2023-07-13T04:08:28;18.00;99.90
5041;DHT22;2539;52.568;13.364;2023-07-13T04:10:55;18.10;99.90
5041;DHT22;2539;52.568;13.364;2023-07-13T04:13:22;18.20;99.90
5041;DHT22;2539;52.568;13.364;2023-07-13T04:15:49;18.60;99.90
5041;DHT22;2539;52.568;13.364;2023-07-13T04:18:15;19.40;99.90
5041;DHT22;2539;52.568;13.364;2023-07-13T04:20:41;19.50;99.90
5041;DHT22;2539;52.568;13.364;2023-07-13T04:23:08;20.00;99.90
5041;DHT22;2539;52.568;13.364;2023-07-13T04:25:34;21.30;99.90
5041;DHT22;2539;52.568;13.364;2023-07-13T04:28:02;22.70;99.90
5041;DHT22;2539;52.568;13.364;2023-07-13T04:30:29;23.80;99.90
5041;DHT22;2539;52.568;13.364;2023-07-13T04:32:55;24.30;99.90
5041;DHT22;2539;52.568;13.364;2023-07-13T04:35:21;23.20;99.90
5041;DHT22;2539;52.568;13.364;2023-07-13T04:37:49;21.90;99.90
5041;DHT22;2539;52.568;13.364;2023-07-13T04:40:20;20.80;99.90
5041;DHT22;2539;52.568;13.364;2023-07-13T04:42:47;19.90;99.90
5041;DHT22;2539;52.568;13.364;2023-07-13T04:45:14;19.60;99.90
5041;DHT22;2539;52.568;13.364;2023-07-13T04:47:41;19.40;99.90
5041;DHT22;2539;52.568;13.364;2023-07-13T04:50:08;19.20;99.90
5041;DHT22;2539;52.568;13.364;2023-07-13T04:52:35;19.00;99.90
5041;DHT22;2539;52.568;13.364;2023-07-13T04:55:01;18.90;99.90
5041;DHT22;2539;52.568;13.364;2023-07-13T04:57:28;18.50;99.90
5041;DHT22;2539;52.568;13.364;2023-07-13T04:59:54;18.50;99.90
5041;DHT22;2539;52.568;13.364;2023-07-13T05:02:21;18.40;99.90
5041;DHT22;2539;52.568;13.364;2023-07-13T05:04:48;18.40;99.90
5041;DHT22;2539;52.568;13.364;2023-07-13T05:07:14;18.50;99.90
5041;DHT22;2539;52.568;13.364;2023-07-13T05:09:41;18.30;99.90
5041;DHT22;2539;52.568;13.364;2023-07-13T05:12:09;18.20;99.90
5041;DHT22;2539;52.568;13.364;2023-07-13T05:14:36;18.30;99.90
5041;DHT22;2539;52.568;13.364;2023-07-13T05:17:02;18.40;99.90
5041;DHT22;2539;52.568;13.364;2023-07-13T05:19:28;18.40;99.90
5041;DHT22;2539;52.568;13.364;2023-07-13T05:21:54;18.60;99.90
5041;DHT22;2539;52.568;13.364;2023-07-13T05:24:21;18.80;99.90
5041;DHT22;2539;52.568;13.364;2023-07-13T05:26:47;18.80;99.90
5041;DHT22;2539;52.568;13.364;2023-07-13T05:29:14;18.80;99.90
5041;DHT22;2539;52.568;13.364;2023-07-13T05:31:40;18.90;99.90
5041;DHT22;2539;52.568;13.364;2023-07-13T05:34:06;19.00;99.90
5041;DHT22;2539;52.568;13.364;2023-07-13T05:36:32;18.90;99.90
5041;DHT22;2539;52.568;13.364;2023-07-13T05:38:59;18.60;99.90
5041;DHT22;2539;52.568;13.364;2023-07-13T05:41:25;18.70;99.90
5041;DHT22;2539;52.568;13.364;2023-07-13T05:43:51;18.50;99.90
5041;DHT22;2539;52.568;13.364;2023-07-13T05:46:17;18.60;99.90
5041;DHT22;2539;52.568;13.364;2023-07-13T05:48:44;18.80;99.90
5041;DHT22;2539;52.568;13.364;2023-07-13T05:51:10;19.00;99.90
5041;DHT22;2539;52.568;13.364;2023-07-13T05:53:36;19.00;99.90
5041;DHT22;2539;52.568;13.364;2023-07-13T05:56:03;19.20;99.90
5041;DHT22;2539;52.568;13.364;2023-07-13T05:58:29;19.30;99.90
5041;DHT22;2539;52.568;13.364;2023-07-13T06:01:00;19.40;99.90
5041;DHT22;2539;52.568;13.364;2023-07-13T06:03:27;19.40;99.90
5041;DHT22;2539;52.568;13.364;2023-07-13T06:05:53;19.60;99.90
5041;DHT22;2539;52.568;13.364;2023-07-13T06:08:19;19.80;99.90
5041;DHT22;2539;52.568;13.364;2023-07-13T06:10:45;20.00;99.90
5041;DHT22;2539;52.568;13.364;2023-07-13T06:13:11;20.10;99.90
5041;DHT22;2539;52.568;13.364;2023-07-13T06:15:38;20.00;99.90
5041;DHT22;2539;52.568;13.364;2023-07-13T06:18:04;19.90;99.90
5041;DHT22;2539;52.568;13.364;2023-07-13T06:20:30;19.80;99.90
5041;DHT22;2539;52.568;13.364;2023-07-13T06:22:59;19.90;99.90
5041;DHT22;2539;52.568;13.364;2023-07-13T06:25:26;19.80;99.90
5041;DHT22;2539;52.568;13.364;2023-07-13T06:27:52;19.50;99.90
5041;DHT22;2539;52.568;13.364;2023-07-13T06:30:19;19.40;99.90
5041;DHT22;2539;52.568;13.364;2023-07-13T06:32:45;19.60;99.90
5041;DHT22;2539;52.568;13.364;2023-07-13T06:35:11;19.70;99.90
5041;DHT22;2539;52.568;13.364;2023-07-13T06:37:39;19.80;99.90
5041;DHT22;2539;52.568;13.364;2023-07-13T06:40:06;19.80;99.90
5041;DHT22;2539;52.568;13.364;2023-07-13T06:42:32;20.00;99.90
5041;DHT22;2539;52.568;13.364;2023-07-13T06:44:58;20.20;99.90
5041;DHT22;2539;52.568;13.364;2023-07-13T06:47:25;20.30;99.90
5041;DHT22;2539;52.568;13.364;2023-07-13T06:49:51;20.30;99.90
5041;DHT22;2539;52.568;13.364;2023-07-13T06:52:17;20.30;99.90
5041;DHT22;2539;52.568;13.364;2023-07-13T06:54:43;20.30;99.90
5041;DHT22;2539;52.568;13.364;2023-07-13T06:57:10;20.20;99.90
5041;DHT22;2539;52.568;13.364;2023-07-13T06:59:36;20.20;99.90
5041;DHT22;2539;52.568;13.364;2023-07-13T07:02:02;20.30;99.90
5041;DHT22;2539;52.568;13.364;2023-07-13T07:04:29;20.50;99.90
5041;DHT22;2539;52.568;13.364;2023-07-13T07:06:55;20.50;99.90
5041;DHT22;2539;52.568;13.364;2023-07-13T07:09:21;20.50;99.90
5041;DHT22;2539;52.568;13.364;2023-07-13T07:11:47;20.70;99.90
5041;DHT22;2539;52.568;13.364;2023-07-13T07:14:14;20.80;99.90
5041;DHT22;2539;52.568;13.364;2023-07-13T07:16:40;20.90;99.90
5041;DHT22;2539;52.568;13.364;2023-07-13T07:19:06;21.20;99.90
5041;DHT22;2539;52.568;13.364;2023-07-13T07:21:32;21.00;99.90
5041;DHT22;2539;52.568;13.364;2023-07-13T07:23:59;21.10;99.90
5041;DHT22;2539;52.568;13.364;2023-07-13T07:26:26;21.20;99.90
5041;DHT22;2539;52.568;13.364;2023-07-13T07:28:52;21.20;99.90
5041;DHT22;2539;52.568;13.364;2023-07-13T07:31:18;21.40;99.90
5041;DHT22;2539;52.568;13.364;2023-07-13T07:33:44;21.50;99.90
5041;DHT22;2539;52.568;13.364;2023-07-13T07:36:11;21.60;99.90
5041;DHT22;2539;52.568;13.364;2023-07-13T07:38:37;21.60;99.90
5041;DHT22;2539;52.568;13.364;2023-07-13T07:41:05;21.80;99.90
5041;DHT22;2539;52.568;13.364;2023-07-13T07:43:31;21.80;99.90
5041;DHT22;2539;52.568;13.364;2023-07-13T07:45:58;21.90;99.90
5041;DHT22;2539;52.568;13.364;2023-07-13T07:48:24;22.10;99.90
5041;DHT22;2539;52.568;13.364;2023-07-13T07:50:51;22.30;99.90
5041;DHT22;2539;52.568;13.364;2023-07-13T07:53:17;22.20;99.80
5041;DHT22;2539;52.568;13.364;2023-07-13T07:55:43;22.50;99.30
5041;DHT22;2539;52.568;13.364;2023-07-13T07:58:09;22.70;98.40
5041;DHT22;2539;52.568;13.364;2023-07-13T08:00:36;22.50;99.10
5041;DHT22;2539;52.568;13.364;2023-07-13T08:03:02;22.60;98.00
5041;DHT22;2539;52.568;13.364;2023-07-13T08:05:29;22.50;98.30
5041;DHT22;2539;52.568;13.364;2023-07-13T08:07:55;22.30;99.00
5041;DHT22;2539;52.568;13.364;2023-07-13T08:10:21;22.30;99.40
5041;DHT22;2539;52.568;13.364;2023-07-13T08:12:47;22.80;99.20
5041;DHT22;2539;52.568;13.364;2023-07-13T08:15:15;22.50;99.50
5041;DHT22;2539;52.568;13.364;2023-07-13T08:17:42;22.50;99.50
5041;DHT22;2539;52.568;13.364;2023-07-13T08:20:08;22.20;99.90
5041;DHT22;2539;52.568;13.364;2023-07-13T08:22:37;22.60;99.90
5041;DHT22;2539;52.568;13.364;2023-07-13T08:25:04;22.40;99.80
5041;DHT22;2539;52.568;13.364;2023-07-13T08:27:30;22.40;99.40
5041;DHT22;2539;52.568;13.364;2023-07-13T08:29:57;22.80;99.60
5041;DHT22;2539;52.568;13.364;2023-07-13T08:32:23;23.20;99.20
5041;DHT22;2539;52.568;13.364;2023-07-13T08:34:50;23.40;98.60
5041;DHT22;2539;52.568;13.364;2023-07-13T08:37:17;23.20;98.50
5041;DHT22;2539;52.568;13.364;2023-07-13T08:39:44;23.20;97.70
5041;DHT22;2539;52.568;13.364;2023-07-13T08:42:44;23.50;97.80
5041;DHT22;2539;52.568;13.364;2023-07-13T08:45:22;23.30;97.00
5041;DHT22;2539;52.568;13.364;2023-07-13T08:47:54;22.80;97.60
5041;DHT22;2539;52.568;13.364;2023-07-13T08:50:25;22.70;97.40
5041;DHT22;2539;52.568;13.364;2023-07-13T08:52:55;23.00;96.90
5041;DHT22;2539;52.568;13.364;2023-07-13T08:55:27;22.60;96.10
5041;DHT22;2539;52.568;13.364;2023-07-13T08:58:05;22.60;96.70
5041;DHT22;2539;52.568;13.364;2023-07-13T09:00:48;23.00;96.90
5041;DHT22;2539;52.568;13.364;2023-07-13T09:03:23;22.70;96.50
5041;DHT22;2539;52.568;13.364;2023-07-13T09:05:54;22.80;96.60
5041;DHT22;2539;52.568;13.364;2023-07-13T09:11:23;23.20;96.20
5041;DHT22;2539;52.568;13.364;2023-07-13T09:16:25;23.20;95.80
5041;DHT22;2539;52.568;13.364;2023-07-13T09:18:54;23.10;96.30
5041;DHT22;2539;52.568;13.364;2023-07-13T09:21:25;23.30;95.40
5041;DHT22;2539;52.568;13.364;2023-07-13T09:23:53;23.20;94.50
5041;DHT22;2539;52.568;13.364;2023-07-13T09:26:24;23.40;95.20
5041;DHT22;2539;52.568;13.364;2023-07-13T09:29:06;23.50;95.50
5041;DHT22;2539;52.568;13.364;2023-07-13T09:31:41;23.60;95.20
5041;DHT22;2539;52.568;13.364;2023-07-13T09:34:12;23.80;94.60
5041;DHT22;2539;52.568;13.364;2023-07-13T09:36:39;23.70;94.40
5041;DHT22;2539;52.568;13.364;2023-07-13T09:39:18;23.30;93.90
5041;DHT22;2539;52.568;13.364;2023-07-13T09:44:53;23.70;94.40
5041;DHT22;2539;52.568;13.364;2023-07-13T09:47:28;23.90;94.00
5041;DHT22;2539;52.568;13.364;2023-07-13T09:50:00;24.10;93.70
5041;DHT22;2539;52.568;13.364;2023-07-13T09:52:45;24.10;92.90
5041;DHT22;2539;52.568;13.364;2023-07-13T09:55:28;24.60;92.40
5041;DHT22;2539;52.568;13.364;2023-07-13T09:57:55;24.50;91.60
5041;DHT22;2539;52.568;13.364;2023-07-13T10:00:25;24.50;92.30
5041;DHT22;2539;52.568;13.364;2023-07-13T10:02:59;24.80;92.00
5041;DHT22;2539;52.568;13.364;2023-07-13T10:05:26;24.80;91.70
5041;DHT22;2539;52.568;13.364;2023-07-13T10:07:56;25.00;91.80
5041;DHT22;2539;52.568;13.364;2023-07-13T10:10:22;25.40;91.80
5041;DHT22;2539;52.568;13.364;2023-07-13T10:12:49;25.70;91.70
5041;DHT22;2539;52.568;13.364;2023-07-13T10:15:21;25.20;91.80
5041;DHT22;2539;52.568;13.364;2023-07-13T10:17:48;25.20;92.40
5041;DHT22;2539;52.568;13.364;2023-07-13T10:20:15;25.40;91.30
5041;DHT22;2539;52.568;13.364;2023-07-13T10:23:05;25.50;90.70
5041;DHT22;2539;52.568;13.364;2023-07-13T10:25:39;25.10;89.40
5041;DHT22;2539;52.568;13.364;2023-07-13T10:28:33;25.00;90.00
5041;DHT22;2539;52.568;13.364;2023-07-13T10:31:01;25.30;89.30
5041;DHT22;2539;52.568;13.364;2023-07-13T10:33:28;25.30;89.50
5041;DHT22;2539;52.568;13.364;2023-07-13T10:36:03;25.00;88.00
5041;DHT22;2539;52.568;13.364;2023-07-13T10:38:32;24.60;87.60
5041;DHT22;2539;52.568;13.364;2023-07-13T10:41:04;24.60;87.60
5041;DHT22;2539;52.568;13.364;2023-07-13T10:43:42;24.80;89.00
5041;DHT22;2539;52.568;13.364;2023-07-13T10:46:11;24.40;90.20
5041;DHT22;2539;52.568;13.364;2023-07-13T10:48:40;24.20;90.40
5041;DHT22;2539;52.568;13.364;2023-07-13T10:51:08;24.00;90.40
5041;DHT22;2539;52.568;13.364;2023-07-13T10:53:38;24.10;91.00
5041;DHT22;2539;52.568;13.364;2023-07-13T10:56:29;23.80;89.30
5041;DHT22;2539;52.568;13.364;2023-07-13T10:59:17;23.50;90.40
5041;DHT22;2539;52.568;13.364;2023-07-13T11:04:25;23.90;90.20
5041;DHT22;2539;52.568;13.364;2023-07-13T11:07:22;24.30;90.80
5041;DHT22;2539;52.568;13.364;2023-07-13T11:09:52;24.30;88.00
5041;DHT22;2539;52.568;13.364;2023-07-13T11:19:54;24.40;88.40
5041;DHT22;2539;52.568;13.364;2023-07-13T11:22:51;24.40;87.50
5041;DHT22;2539;52.568;13.364;2023-07-13T11:28:17;24.60;88.70
5041;DHT22;2539;52.568;13.364;2023-07-13T11:31:01;24.60;87.90
5041;DHT22;2539;52.568;13.364;2023-07-13T11:33:51;24.60;84.70
5041;DHT22;2539;52.568;13.364;2023-07-13T11:36:21;24.60;84.20
5041;DHT22;2539;52.568;13.364;2023-07-13T11:39:05;24.50;84.50
5041;DHT22;2539;52.568;13.364;2023-07-13T11:41:52;24.40;84.70
5041;DHT22;2539;52.568;13.364;2023-07-13T11:44:21;24.90;85.50
5041;DHT22;2539;52.568;13.364;2023-07-13T11:46:53;24.80;85.20
5041;DHT22;2539;52.568;13.364;2023-07-13T11:49:21;24.90;85.20
5041;DHT22;2539;52.568;13.364;2023-07-13T11:51:48;25.30;85.10
5041;DHT22;2539;52.568;13.364;2023-07-13T11:56:55;25.50;83.80
5041;DHT22;2539;52.568;13.364;2023-07-13T11:59:24;25.00;83.00
5041;DHT22;2539;52.568;13.364;2023-07-13T12:01:52;24.90;83.70
5041;DHT22;2539;52.568;13.364;2023-07-13T12:04:31;25.10;84.00
5041;DHT22;2539;52.568;13.364;2023-07-13T12:07:07;25.10;83.90
5041;DHT22;2539;52.568;13.364;2023-07-13T12:09:40;25.20;83.40
5041;DHT22;2539;52.568;13.364;2023-07-13T12:12:18;25.40;83.00
5041;DHT22;2539;52.568;13.364;2023-07-13T12:14:45;25.20;83.20
5041;DHT22;2539;52.568;13.364;2023-07-13T12:17:21;24.70;82.60
5041;DHT22;2539;52.568;13.364;2023-07-13T12:19:48;24.50;83.40
5041;DHT22;2539;52.568;13.364;2023-07-13T12:22:15;24.60;84.50
5041;DHT22;2539;52.568;13.364;2023-07-13T12:24:43;24.50;84.30
5041;DHT22;2539;52.568;13.364;2023-07-13T12:27:35;24.80;84.80
5041;DHT22;2539;52.568;13.364;2023-07-13T12:30:04;25.10;85.00
5041;DHT22;2539;52.568;13.364;2023-07-13T12:32:31;24.60;85.20
5041;DHT22;2539;52.568;13.364;2023-07-13T12:35:14;24.30;86.40
5041;DHT22;2539;52.568;13.364;2023-07-13T12:37:46;24.40;85.80
5041;DHT22;2539;52.568;13.364;2023-07-13T12:40:17;24.80;84.70
5041;DHT22;2539;52.568;13.364;2023-07-13T12:42:49;24.90;83.50
5041;DHT22;2539;52.568;13.364;2023-07-13T12:45:21;24.80;84.00
5041;DHT22;2539;52.568;13.364;2023-07-13T12:47:50;24.80;81.80
5041;DHT22;2539;52.568;13.364;2023-07-13T12:50:23;25.00;82.00
5041;DHT22;2539;52.568;13.364;2023-07-13T12:52:54;25.00;82.80
5041;DHT22;2539;52.568;13.364;2023-07-13T12:55:21;25.00;82.90
5041;DHT22;2539;52.568;13.364;2023-07-13T12:57:53;24.70;83.70
5041;DHT22;2539;52.568;13.364;2023-07-13T13:02:56;24.80;84.10
5041;DHT22;2539;52.568;13.364;2023-07-13T13:05:26;24.70;82.90
5041;DHT22;2539;52.568;13.364;2023-07-13T13:07:52;25.20;83.30
5041;DHT22;2539;52.568;13.364;2023-07-13T13:10:19;25.50;82.00
5041;DHT22;2539;52.568;13.364;2023-07-13T13:12:47;25.90;81.70
5041;DHT22;2539;52.568;13.364;2023-07-13T13:15:14;26.00;81.90
5041;DHT22;2539;52.568;13.364;2023-07-13T13:17:40;25.70;81.90
5041;DHT22;2539;52.568;13.364;2023-07-13T13:20:18;25.70;82.60
5041;DHT22;2539;52.568;13.364;2023-07-13T13:22:45;26.10;82.20
5041;DHT22;2539;52.568;13.364;2023-07-13T13:25:12;26.50;81.30
5041;DHT22;2539;52.568;13.364;2023-07-13T13:27:40;26.00;81.00
5041;DHT22;2539;52.568;13.364;2023-07-13T13:30:15;26.20;81.30
5041;DHT22;2539;52.568;13.364;2023-07-13T13:32:44;26.00;81.00
5041;DHT22;2539;52.568;13.364;2023-07-13T13:35:14;25.60;82.30
5041;DHT22;2539;52.568;13.364;2023-07-13T13:37:40;25.70;81.60
5041;DHT22;2539;52.568;13.364;2023-07-13T13:40:17;25.40;82.80
5041;DHT22;2539;52.568;13.364;2023-07-13T13:42:44;25.30;83.30
5041;DHT22;2539;52.568;13.364;2023-07-13T13:45:11;25.00;83.90
5041;DHT22;2539;52.568;13.364;2023-07-13T13:47:39;25.00;83.10
5041;DHT22;2539;52.568;13.364;2023-07-13T13:50:18;25.20;83.20
5041;DHT22;2539;52.568;13.364;2023-07-13T13:52:45;25.60;82.70
5041;DHT22;2539;52.568;13.364;2023-07-13T13:55:15;25.70;81.30
5041;DHT22;2539;52.568;13.364;2023-07-13T13:57:42;25.90;81.80
5041;DHT22;2539;52.568;13.364;2023-07-13T14:00:11;26.40;81.70
5041;DHT22;2539;52.568;13.364;2023-07-13T14:02:42;26.20;80.50
5041;DHT22;2539;52.568;13.364;2023-07-13T14:05:15;26.20;81.70
5041;DHT22;2539;52.568;13.364;2023-07-13T14:07:42;26.10;81.20
5041;DHT22;2539;52.568;13.364;2023-07-13T14:10:14;26.00;80.20
5041;DHT22;2539;52.568;13.364;2023-07-13T14:12:42;25.70;80.10
5041;DHT22;2539;52.568;13.364;2023-07-13T14:15:29;25.20;81.20
5041;DHT22;2539;52.568;13.364;2023-07-13T14:17:57;25.30;82.00
5041;DHT22;2539;52.568;13.364;2023-07-13T14:20:25;25.70;82.30
5041;DHT22;2539;52.568;13.364;2023-07-13T14:22:52;25.60;80.10
5041;DHT22;2539;52.568;13.364;2023-07-13T14:25:20;25.40;81.00
5041;DHT22;2539;52.568;13.364;2023-07-13T14:27:49;25.30;81.80
5041;DHT22;2539;52.568;13.364;2023-07-13T14:30:20;25.20;82.70
5041;DHT22;2539;52.568;13.364;2023-07-13T14:32:46;25.50;83.00
5041;DHT22;2539;52.568;13.364;2023-07-13T14:35:14;25.70;82.90
5041;DHT22;2539;52.568;13.364;2023-07-13T14:37:41;26.20;81.90
5041;DHT22;2539;52.568;13.364;2023-07-13T14:40:15;26.90;81.10
5041;DHT22;2539;52.568;13.364;2023-07-13T14:42:42;27.30;79.50
5041;DHT22;2539;52.568;13.364;2023-07-13T14:45:16;26.90;78.40
5041;DHT22;2539;52.568;13.364;2023-07-13T14:47:43;27.00;76.30
5041;DHT22;2539;52.568;13.364;2023-07-13T14:50:20;26.50;77.40
5041;DHT22;2539;52.568;13.364;2023-07-13T14:52:47;27.20;77.50
5041;DHT22;2539;52.568;13.364;2023-07-13T14:55:16;27.70;74.40
5041;DHT22;2539;52.568;13.364;2023-07-13T14:57:44;27.50;74.50
5041;DHT22;2539;52.568;13.364;2023-07-13T15:00:17;26.50;74.00
5041;DHT22;2539;52.568;13.364;2023-07-13T15:02:55;26.40;74.00
5041;DHT22;2539;52.568;13.364;2023-07-13T15:05:24;26.90;74.50
5041;DHT22;2539;52.568;13.364;2023-07-13T15:07:52;26.80;73.70
5041;DHT22;2539;52.568;13.364;2023-07-13T15:10:32;27.00;73.80
5041;DHT22;2539;52.568;13.364;2023-07-13T15:13:01;28.10;74.10
5041;DHT22;2539;52.568;13.364;2023-07-13T15:15:31;27.50;74.00
5041;DHT22;2539;52.568;13.364;2023-07-13T15:17:59;28.30;74.30
5041;DHT22;2539;52.568;13.364;2023-07-13T15:20:29;28.90;73.00
5041;DHT22;2539;52.568;13.364;2023-07-13T15:22:56;27.90;72.70
5041;DHT22;2539;52.568;13.364;2023-07-13T15:25:25;28.20;74.00
5041;DHT22;2539;52.568;13.364;2023-07-13T15:27:53;28.60;71.80
5041;DHT22;2539;52.568;13.364;2023-07-13T15:30:20;29.10;72.60
5041;DHT22;2539;52.568;13.364;2023-07-13T15:32:47;29.60;72.50
5041;DHT22;2539;52.568;13.364;2023-07-13T15:35:14;29.20;71.60
5041;DHT22;2539;52.568;13.364;2023-07-13T15:37:41;28.80;71.60
5041;DHT22;2539;52.568;13.364;2023-07-13T15:40:08;28.90;72.10
5041;DHT22;2539;52.568;13.364;2023-07-13T15:42:35;29.60;72.50
5041;DHT22;2539;52.568;13.364;2023-07-13T15:45:02;29.20;70.70
5041;DHT22;2539;52.568;13.364;2023-07-13T15:47:29;29.20;71.20
5041;DHT22;2539;52.568;13.364;2023-07-13T15:49:55;29.30;72.20
5041;DHT22;2539;52.568;13.364;2023-07-13T15:52:23;30.10;71.20
5041;DHT22;2539;52.568;13.364;2023-07-13T15:54:50;29.30;70.60
5041;DHT22;2539;52.568;13.364;2023-07-13T15:57:17;27.90;72.60
5041;DHT22;2539;52.568;13.364;2023-07-13T15:59:43;28.70;71.80
5041;DHT22;2539;52.568;13.364;2023-07-13T16:02:17;29.00;71.90
5041;DHT22;2539;52.568;13.364;2023-07-13T16:04:44;28.50;71.70
5041;DHT22;2539;52.568;13.364;2023-07-13T16:07:11;27.80;72.60
5041;DHT22;2539;52.568;13.364;2023-07-13T16:09:39;27.70;73.10
5041;DHT22;2539;52.568;13.364;2023-07-13T16:12:15;28.00;72.20
5041;DHT22;2539;52.568;13.364;2023-07-13T16:14:43;28.80;72.00
5041;DHT22;2539;52.568;13.364;2023-07-13T16:17:13;29.70;70.90
5041;DHT22;2539;52.568;13.364;2023-07-13T16:19:41;29.30;70.40
5041;DHT22;2539;52.568;13.364;2023-07-13T16:22:15;30.00;70.50
5041;DHT22;2539;52.568;13.364;2023-07-13T16:24:42;29.70;70.10